createdAt,value
2024-03-22T00:00:43.143Z,84.82
2024-03-22T00:03:34.652Z,85.33
2024-03-22T00:06:06.678Z,85.35
2024-03-22T00:08:37.987Z,85.32
2024-03-22T00:11:09.539Z,85.39
2024-03-22T00:13:40.989Z,85.80
2024-03-22T00:16:12.337Z,85.75
2024-03-22T00:18:43.612Z,85.93
2024-03-22T00:21:15.438Z,85.80
2024-03-22T00:23:48.409Z,86.13
2024-03-22T00:26:19.991Z,86.04
2024-03-22T00:28:51.311Z,86.85
2024-03-22T00:31:22.778Z,86.85
2024-03-22T00:33:54.173Z,87.47
2024-03-22T00:36:25.688Z,87.67
2024-03-22T00:38:58.210Z,88.11
2024-03-22T00:41:29.595Z,88.08
2024-03-22T00:44:02.049Z,88.30
2024-03-22T00:46:34.318Z,88.73
2024-03-22T00:49:06.077Z,89.57
2024-03-22T00:51:38.087Z,89.84
2024-03-22T00:54:09.810Z,89.68
2024-03-22T00:56:41.086Z,90.58
2024-03-22T00:59:12.507Z,90.41
2024-03-22T01:01:43.760Z,90.44
2024-03-22T01:04:15.607Z,90.45
2024-03-22T01:06:47.080Z,91.34
2024-03-22T01:09:20.779Z,91.22
2024-03-22T01:11:52.193Z,91.46
2024-03-22T01:14:23.508Z,91.50
2024-03-22T01:16:56.434Z,91.69
2024-03-22T01:19:27.781Z,91.89
2024-03-22T01:21:59.402Z,92.09
2024-03-22T01:24:31.011Z,92.34
2024-03-22T01:27:02.533Z,92.78
2024-03-22T01:29:34.428Z,93.02
2024-03-22T01:32:06.636Z,93.33
2024-03-22T01:34:37.931Z,93.19
2024-03-22T01:37:10.663Z,93.38
2024-03-22T01:39:42.242Z,93.59
2024-03-22T01:42:13.476Z,93.49
2024-03-22T01:44:44.700Z,93.47
2024-03-22T01:47:16.578Z,93.80
2024-03-22T01:49:48.753Z,94.59
2024-03-22T01:52:20.310Z,95.21
2024-03-22T01:54:52.252Z,96.27
2024-03-22T01:57:23.833Z,95.98
2024-03-22T01:59:57.369Z,96.02
2024-03-22T02:02:29.074Z,98.00
2024-03-22T02:05:00.842Z,98.70
2024-03-22T02:07:33.371Z,98.20
2024-03-22T02:10:05.101Z,98.21
2024-03-22T02:12:36.740Z,99.52
2024-03-22T02:15:11.218Z,98.48
2024-03-22T02:17:42.910Z,98.25
2024-03-22T02:20:15.042Z,98.00
2024-03-22T02:22:46.836Z,97.99
2024-03-22T02:25:18.542Z,99.49
2024-03-22T02:27:51.531Z,100.00
2024-03-22T02:30:23.035Z,100.00
2024-03-22T02:32:54.697Z,99.99
2024-03-22T02:35:26.071Z,100.00
2024-03-22T02:37:59.491Z,100.00
2024-03-22T02:40:31.269Z,100.00
2024-03-22T02:43:03.162Z,100.00
2024-03-22T02:45:34.967Z,100.00
2024-03-22T02:48:07.729Z,100.00
2024-03-22T02:50:39.618Z,100.00
2024-03-22T02:53:12.333Z,100.00
2024-03-22T02:55:44.067Z,100.00
2024-03-22T02:58:15.698Z,100.00
2024-03-22T03:00:47.164Z,100.00
2024-03-22T03:03:18.618Z,100.00
2024-03-22T03:05:50.147Z,100.00
2024-03-22T03:08:22.685Z,100.00
2024-03-22T03:10:53.905Z,100.00
2024-03-22T03:13:25.234Z,100.00
2024-03-22T03:15:56.675Z,100.00
2024-03-22T03:18:28.407Z,100.00
2024-03-22T03:20:59.906Z,100.00
2024-03-22T03:23:31.521Z,100.00
2024-03-22T03:26:03.129Z,100.00
2024-03-22T03:28:37.102Z,100.00
2024-03-22T03:31:07.176Z,100.00
2024-03-22T03:33:38.493Z,100.00
2024-03-22T03:36:10.231Z,100.00
2024-03-22T03:38:42.697Z,100.00
2024-03-22T03:41:14.033Z,100.00
2024-03-22T03:43:45.585Z,100.00
2024-03-22T03:46:16.978Z,100.00
2024-03-22T03:48:48.282Z,100.00
2024-03-22T03:51:19.633Z,100.00
2024-03-22T03:53:51.195Z,100.00
2024-03-22T03:56:22.875Z,100.00
2024-03-22T03:58:55.021Z,100.00
2024-03-22T04:01:26.585Z,100.00
2024-03-22T04:03:58.128Z,100.00
2024-03-22T04:06:29.698Z,100.00
2024-03-22T04:09:02.022Z,100.00
2024-03-22T04:11:33.238Z,100.00
2024-03-22T04:14:04.733Z,100.00
2024-03-22T04:16:36.172Z,100.00
2024-03-22T04:19:07.764Z,100.00
2024-03-22T04:21:39.459Z,100.00
2024-03-22T04:24:11.394Z,100.00
2024-03-22T04:26:43.170Z,100.00
2024-03-22T04:29:20.173Z,100.00
2024-03-22T04:31:51.572Z,100.00
2024-03-22T04:34:25.890Z,100.00
2024-03-22T04:36:59.265Z,100.00
2024-03-22T04:39:31.913Z,100.00
2024-03-22T04:42:03.565Z,100.00
2024-03-22T04:44:37.241Z,100.00
2024-03-22T04:47:10.780Z,100.00
2024-03-22T04:49:42.198Z,100.00
2024-03-22T04:52:13.863Z,100.00
2024-03-22T04:54:45.226Z,100.00
2024-03-22T04:57:16.996Z,100.00
2024-03-22T04:59:48.355Z,100.00
2024-03-22T05:02:19.913Z,100.00
2024-03-22T05:04:51.817Z,100.00
2024-03-22T05:07:23.363Z,100.00
2024-03-22T05:09:55.274Z,100.00
2024-03-22T05:12:26.611Z,100.00
2024-03-22T05:14:58.970Z,100.00
2024-03-22T05:17:32.891Z,100.00
2024-03-22T05:20:06.334Z,100.00
2024-03-22T05:22:38.910Z,100.00
2024-03-22T05:25:11.367Z,100.00
2024-03-22T05:27:43.022Z,100.00
2024-03-22T05:30:16.137Z,100.00
2024-03-22T05:32:47.501Z,100.00
2024-03-22T05:35:19.915Z,100.00
2024-03-22T05:37:51.813Z,100.00
2024-03-22T05:40:24.527Z,100.00
2024-03-22T05:42:55.971Z,100.00
2024-03-22T05:45:27.421Z,100.00
2024-03-22T05:47:58.679Z,100.00
2024-03-22T05:50:30.652Z,100.00
2024-03-22T05:53:02.130Z,100.00
2024-03-22T05:55:33.760Z,100.00
2024-03-22T05:58:05.768Z,100.00
2024-03-22T06:00:37.269Z,100.00
2024-03-22T06:03:08.813Z,100.00
2024-03-22T06:05:40.808Z,100.00
2024-03-22T06:08:12.153Z,100.00
2024-03-22T06:10:45.082Z,100.00
2024-03-22T06:13:16.404Z,100.00
2024-03-22T06:15:48.898Z,100.00
2024-03-22T06:18:21.139Z,100.00
2024-03-22T06:20:56.462Z,100.00
2024-03-22T06:23:27.896Z,100.00
2024-03-22T06:26:00.068Z,100.00
2024-03-22T06:28:31.962Z,100.00
2024-03-22T06:31:04.458Z,100.00
2024-03-22T06:33:36.256Z,100.00
2024-03-22T06:36:09.124Z,100.00
2024-03-22T06:38:40.495Z,100.00
2024-03-22T06:41:11.923Z,100.00
2024-03-22T06:43:43.900Z,100.00
2024-03-22T06:46:15.398Z,100.00
2024-03-22T06:48:47.508Z,100.00
2024-03-22T06:51:18.953Z,100.00
2024-03-22T06:53:53.331Z,100.00
2024-03-22T06:56:25.063Z,100.00
2024-03-22T06:58:56.480Z,100.00
2024-03-22T07:01:28.413Z,100.00
2024-03-22T07:03:59.871Z,100.00
2024-03-22T07:06:31.771Z,100.00
2024-03-22T07:09:03.698Z,100.00
2024-03-22T07:11:35.286Z,100.00
2024-03-22T07:14:08.851Z,100.00
2024-03-22T07:16:40.592Z,100.00
2024-03-22T07:19:12.100Z,100.00
2024-03-22T07:21:43.593Z,100.00
2024-03-22T07:24:14.923Z,99.99
2024-03-22T07:26:47.704Z,100.00
2024-03-22T07:29:19.059Z,99.89
2024-03-22T07:31:50.317Z,99.61
2024-03-22T07:34:21.745Z,99.32
2024-03-22T07:36:57.219Z,99.33
2024-03-22T07:39:29.009Z,99.30
2024-03-22T07:42:00.959Z,99.16
2024-03-22T07:44:32.169Z,99.05
2024-03-22T07:47:03.592Z,99.22
2024-03-22T07:49:35.332Z,99.15
2024-03-22T07:52:07.913Z,98.65
2024-03-22T07:54:39.294Z,98.45
2024-03-22T07:57:12.065Z,98.40
2024-03-22T07:59:45.185Z,98.26
2024-03-22T08:02:16.871Z,98.32
2024-03-22T08:04:48.321Z,98.47
2024-03-22T08:07:20.061Z,98.37
2024-03-22T08:09:51.483Z,98.34
2024-03-22T08:12:22.975Z,97.88
2024-03-22T08:14:54.408Z,97.73
2024-03-22T08:17:25.745Z,97.03
2024-03-22T08:19:57.116Z,96.68
2024-03-22T08:22:28.438Z,96.35
2024-03-22T08:25:03.664Z,96.19
2024-03-22T08:27:46.567Z,96.14
2024-03-22T08:30:27.166Z,96.23
2024-03-22T08:32:58.977Z,96.10
2024-03-22T08:35:32.043Z,95.86
2024-03-22T08:38:04.487Z,95.86
2024-03-22T08:40:36.134Z,95.95
2024-03-22T08:43:18.389Z,95.88
2024-03-22T08:45:49.832Z,95.73
2024-03-22T08:48:23.118Z,95.65
2024-03-22T08:50:54.325Z,95.44
2024-03-22T08:53:27.110Z,95.32
2024-03-22T08:55:59.624Z,94.79
2024-03-22T08:58:30.896Z,94.61
2024-03-22T09:01:03.076Z,94.62
2024-03-22T09:03:34.706Z,94.77
2024-03-22T09:08:38.999Z,94.73
2024-03-22T09:11:10.656Z,94.72
2024-03-22T09:13:42.038Z,94.48
2024-03-22T09:16:13.579Z,94.37
2024-03-22T09:18:45.455Z,94.20
2024-03-22T09:21:17.488Z,93.21
2024-03-22T09:23:49.488Z,93.17
2024-03-22T09:26:21.009Z,93.16
2024-03-22T09:28:53.008Z,93.05
2024-03-22T09:31:24.396Z,93.10
2024-03-22T09:33:56.029Z,93.27
2024-03-22T09:36:28.307Z,93.15
2024-03-22T09:39:00.217Z,93.00
2024-03-22T09:41:34.928Z,93.10
2024-03-22T09:44:07.839Z,92.44
2024-03-22T09:46:39.805Z,92.29
2024-03-22T09:49:12.677Z,92.63
2024-03-22T09:51:45.587Z,92.82
2024-03-22T09:54:17.847Z,92.82
2024-03-22T09:56:51.539Z,92.72
2024-03-22T09:59:23.148Z,92.26
2024-03-22T10:01:55.363Z,92.32
2024-03-22T10:04:27.330Z,92.36
2024-03-22T10:06:58.922Z,92.63
2024-03-22T10:09:34.481Z,92.66
2024-03-22T10:12:06.331Z,92.15
2024-03-22T10:14:38.207Z,92.19
2024-03-22T10:17:09.541Z,92.48
2024-03-22T10:19:41.969Z,92.11
2024-03-22T10:22:13.875Z,91.84
2024-03-22T10:24:45.431Z,91.67
2024-03-22T10:27:17.057Z,91.66
2024-03-22T10:29:49.874Z,91.51
2024-03-22T10:32:21.853Z,91.48
2024-03-22T10:34:53.994Z,91.37
2024-03-22T10:37:26.123Z,91.30
2024-03-22T10:39:58.655Z,91.47
2024-03-22T10:42:30.340Z,91.65
2024-03-22T10:45:02.099Z,92.12
2024-03-22T10:47:34.630Z,92.66
2024-03-22T10:50:10.031Z,92.77
2024-03-22T10:52:47.990Z,92.95
2024-03-22T10:55:24.186Z,93.01
2024-03-22T10:57:55.781Z,93.37
2024-03-22T11:00:32.955Z,93.36
2024-03-22T11:03:05.932Z,93.61
2024-03-22T11:05:37.807Z,93.95
2024-03-22T11:08:11.647Z,94.26
2024-03-22T11:10:43.337Z,94.31
2024-03-22T11:13:14.988Z,94.16
2024-03-22T11:15:46.569Z,94.32
2024-03-22T11:18:18.188Z,94.27
2024-03-22T11:20:50.344Z,94.42
2024-03-22T11:23:22.195Z,94.44
2024-03-22T11:25:54.306Z,94.48
2024-03-22T11:28:26.671Z,94.27
2024-03-22T11:30:57.990Z,94.22
2024-03-22T11:33:29.553Z,93.99
2024-03-22T11:36:03.162Z,93.66
2024-03-22T11:38:35.745Z,92.67
2024-03-22T11:41:07.722Z,92.50
2024-03-22T11:43:39.385Z,91.97
2024-03-22T11:46:10.776Z,92.16
2024-03-22T11:48:45.233Z,91.24
2024-03-22T11:51:16.804Z,91.24
2024-03-22T11:53:53.990Z,91.52
2024-03-22T11:56:27.014Z,91.69
2024-03-22T11:59:04.090Z,91.35
2024-03-22T12:01:37.846Z,90.24
2024-03-22T12:04:09.259Z,90.60
2024-03-22T12:06:41.077Z,90.11
2024-03-22T12:09:13.694Z,89.48
2024-03-22T12:11:45.554Z,88.88
2024-03-22T12:14:17.621Z,89.02
2024-03-22T12:16:49.409Z,88.57
2024-03-22T12:19:21.038Z,87.60
2024-03-22T12:21:52.594Z,87.07
2024-03-22T12:24:24.136Z,87.01
2024-03-22T12:26:55.597Z,86.86
2024-03-22T12:29:27.076Z,86.49
2024-03-22T12:31:58.363Z,86.57
2024-03-22T12:34:30.532Z,87.09
2024-03-22T12:37:02.083Z,87.01
2024-03-22T12:39:33.727Z,86.66
2024-03-22T12:42:05.176Z,86.91
2024-03-22T12:44:36.793Z,86.99
2024-03-22T12:47:08.903Z,87.05
2024-03-22T12:49:40.410Z,86.84
2024-03-22T12:52:11.778Z,86.88
2024-03-22T12:54:43.226Z,86.69
2024-03-22T12:57:14.563Z,85.91
2024-03-22T12:59:47.669Z,86.03
2024-03-22T13:02:20.170Z,85.94
2024-03-22T13:04:52.691Z,85.88
2024-03-22T13:07:23.958Z,85.43
2024-03-22T13:09:56.249Z,85.75
2024-03-22T13:12:27.819Z,85.39
2024-03-22T13:15:12.150Z,85.35
2024-03-22T13:17:49.392Z,85.30
2024-03-22T13:20:21.279Z,85.17
2024-03-22T13:22:53.101Z,83.81
2024-03-22T13:25:24.524Z,83.98
2024-03-22T13:27:56.298Z,82.75
2024-03-22T13:30:28.384Z,82.78
2024-03-22T13:33:00.331Z,82.86
2024-03-22T13:35:34.520Z,83.43
2024-03-22T13:38:04.580Z,82.98
2024-03-22T13:40:36.211Z,82.62
2024-03-22T13:43:07.800Z,83.43
2024-03-22T13:45:45.263Z,83.44
2024-03-22T13:48:17.288Z,83.66
2024-03-22T13:50:51.776Z,83.57
2024-03-22T13:53:24.490Z,82.40
2024-03-22T13:55:55.997Z,82.24
2024-03-22T13:58:28.656Z,82.44
2024-03-22T14:01:00.156Z,82.52
2024-03-22T14:03:31.448Z,82.68
2024-03-22T14:06:04.901Z,82.32
2024-03-22T14:08:36.504Z,81.91
2024-03-22T14:11:08.070Z,82.55
2024-03-22T14:13:39.552Z,82.56
2024-03-22T14:16:11.033Z,82.53
2024-03-22T14:18:42.556Z,82.59
2024-03-22T14:21:19.989Z,82.43
2024-03-22T14:23:51.858Z,82.04
2024-03-22T14:26:25.451Z,81.75
2024-03-22T14:28:57.362Z,80.94
2024-03-22T14:31:29.535Z,81.12
2024-03-22T14:34:00.839Z,81.28
2024-03-22T14:36:32.258Z,81.98
2024-03-22T14:39:07.436Z,81.99
2024-03-22T14:41:40.025Z,82.05
2024-03-22T14:44:11.489Z,81.74
2024-03-22T14:46:43.375Z,81.74
2024-03-22T14:49:14.656Z,81.78
2024-03-22T14:51:46.371Z,81.58
2024-03-22T14:54:20.347Z,81.58
2024-03-22T14:56:52.427Z,81.37
2024-03-22T14:59:23.900Z,81.55
2024-03-22T15:01:56.070Z,81.67
2024-03-22T15:04:27.528Z,81.68
2024-03-22T15:06:59.262Z,81.43
2024-03-22T15:09:31.042Z,81.58
2024-03-22T15:12:02.558Z,81.56
2024-03-22T15:14:34.051Z,81.65
2024-03-22T15:17:05.693Z,81.12
2024-03-22T15:19:37.074Z,81.18
2024-03-22T15:22:10.005Z,81.09
2024-03-22T15:24:41.395Z,80.48
2024-03-22T15:27:16.521Z,80.53
2024-03-22T15:29:47.942Z,80.83
2024-03-22T15:32:21.120Z,81.29
2024-03-22T15:34:52.814Z,81.34
2024-03-22T15:37:25.705Z,81.41
2024-03-22T15:39:57.179Z,81.68
2024-03-22T15:42:29.021Z,81.61
2024-03-22T15:45:04.848Z,81.37
2024-03-22T15:47:36.269Z,81.40
2024-03-22T15:50:10.820Z,81.70
2024-03-22T15:52:42.216Z,81.68
2024-03-22T15:55:13.907Z,81.85
2024-03-22T15:57:45.453Z,81.64
2024-03-22T16:00:18.384Z,81.81
2024-03-22T16:02:49.887Z,82.02
2024-03-22T16:05:21.142Z,82.19
2024-03-22T16:07:52.626Z,82.06
2024-03-22T16:10:25.106Z,82.14
2024-03-22T16:12:57.095Z,82.08
2024-03-22T16:15:31.245Z,81.98
2024-03-22T16:18:02.681Z,82.11
2024-03-22T16:20:34.849Z,82.37
2024-03-22T16:23:08.271Z,82.36
2024-03-22T16:25:41.077Z,82.62
2024-03-22T16:28:13.131Z,82.63
2024-03-22T16:30:44.852Z,82.39
2024-03-22T16:33:16.752Z,82.70
2024-03-22T16:35:48.122Z,82.82
2024-03-22T16:38:19.512Z,82.55
2024-03-22T16:40:51.150Z,82.74
2024-03-22T16:43:24.863Z,82.68
2024-03-22T16:45:56.093Z,83.01
2024-03-22T16:48:27.466Z,82.76
2024-03-22T16:50:59.736Z,82.97
2024-03-22T16:53:31.987Z,83.00
2024-03-22T16:56:03.593Z,83.28
2024-03-22T16:58:37.358Z,83.28
2024-03-22T17:01:09.458Z,83.51
2024-03-22T17:03:43.820Z,83.38
2024-03-22T17:06:21.426Z,83.57
2024-03-22T17:08:55.828Z,83.50
2024-03-22T17:11:27.405Z,83.62
2024-03-22T17:13:59.064Z,83.71
2024-03-22T17:16:30.716Z,83.86
2024-03-22T17:19:02.157Z,83.92
2024-03-22T17:21:33.408Z,84.04
2024-03-22T17:24:05.242Z,83.80
2024-03-22T17:26:41.653Z,83.84
2024-03-22T17:29:13.071Z,83.91
2024-03-22T17:31:44.427Z,84.17
2024-03-22T17:34:15.933Z,83.91
2024-03-22T17:36:47.442Z,84.18
2024-03-22T17:39:18.786Z,84.07
2024-03-22T17:41:50.374Z,84.21
2024-03-22T17:44:21.775Z,84.23
2024-03-22T17:46:52.997Z,84.46
2024-03-22T17:49:24.613Z,84.20
2024-03-22T17:51:55.944Z,84.60
2024-03-22T17:54:27.589Z,84.70
2024-03-22T17:56:59.234Z,84.82
2024-03-22T17:59:30.853Z,84.80
2024-03-22T18:02:02.217Z,84.92
2024-03-22T18:04:33.591Z,85.16
2024-03-22T18:09:37.912Z,85.07
2024-03-22T18:12:12.253Z,84.99
2024-03-22T18:14:47.023Z,84.88
2024-03-22T18:17:18.302Z,84.98
2024-03-22T18:19:50.860Z,85.32
2024-03-22T18:22:22.096Z,85.18
2024-03-22T18:24:53.451Z,85.21
2024-03-22T18:27:25.072Z,84.86
2024-03-22T18:29:57.213Z,85.10
2024-03-22T18:32:28.531Z,84.90
2024-03-22T18:34:59.879Z,85.22
2024-03-22T18:37:33.788Z,85.34
2024-03-22T18:40:04.040Z,85.08
2024-03-22T18:42:35.407Z,84.88
2024-03-22T18:45:09.220Z,85.07
2024-03-22T18:47:40.406Z,85.06
2024-03-22T18:50:12.443Z,84.90
2024-03-22T18:52:43.877Z,84.71
2024-03-22T18:55:15.253Z,84.84
2024-03-22T18:57:46.475Z,84.44
2024-03-22T19:00:18.872Z,84.59
2024-03-22T19:02:50.099Z,84.03
2024-03-22T19:05:21.403Z,84.10
2024-03-22T19:07:52.608Z,84.18
2024-03-22T19:10:25.438Z,83.92
2024-03-22T19:12:56.681Z,84.00
2024-03-22T19:15:28.790Z,83.49
2024-03-22T19:17:59.966Z,83.07
2024-03-22T19:20:31.353Z,83.36
2024-03-22T19:23:04.886Z,83.11
2024-03-22T19:25:36.099Z,83.04
2024-03-22T19:28:10.530Z,82.79
2024-03-22T19:30:43.614Z,82.97
2024-03-22T19:33:16.872Z,82.89
2024-03-22T19:35:48.295Z,82.60
2024-03-22T19:38:20.008Z,82.54
2024-03-22T19:40:51.367Z,82.76
2024-03-22T19:43:23.116Z,82.14
2024-03-22T19:45:55.500Z,82.56
2024-03-22T19:48:26.711Z,81.88
2024-03-22T19:50:58.108Z,81.81
2024-03-22T19:53:30.534Z,82.09
2024-03-22T19:56:02.011Z,82.10
2024-03-22T19:58:33.275Z,81.83
2024-03-22T20:01:04.793Z,81.71
2024-03-22T20:03:36.001Z,81.60
2024-03-22T20:06:07.963Z,81.72
2024-03-22T20:08:39.261Z,81.53
2024-03-22T20:11:10.697Z,81.55
2024-03-22T20:13:41.919Z,81.62
2024-03-22T20:16:13.242Z,81.57
2024-03-22T20:18:44.460Z,81.41
2024-03-22T20:21:15.968Z,81.40
2024-03-22T20:23:47.208Z,81.40
2024-03-22T20:26:19.784Z,80.75
2024-03-22T20:28:52.511Z,81.06
2024-03-22T20:31:23.793Z,81.05
2024-03-22T20:33:55.222Z,80.92
2024-03-22T20:36:26.777Z,80.91
2024-03-22T20:38:58.116Z,81.07
2024-03-22T20:41:29.547Z,80.96
2024-03-22T20:44:00.828Z,80.74
2024-03-22T20:46:32.631Z,80.85
2024-03-22T20:49:03.876Z,80.92
2024-03-22T20:51:35.412Z,80.79
2024-03-22T20:54:08.156Z,80.81
2024-03-22T20:56:39.512Z,80.77
2024-03-22T20:59:10.917Z,80.92
2024-03-22T21:01:42.499Z,81.03
2024-03-22T21:04:14.200Z,81.05
2024-03-22T21:06:48.802Z,81.25
2024-03-22T21:09:23.327Z,81.30
2024-03-22T21:11:55.249Z,81.51
2024-03-22T21:14:26.900Z,81.77
2024-03-22T21:16:58.610Z,81.54
2024-03-22T21:19:32.530Z,81.33
2024-03-22T21:22:07.250Z,81.69
2024-03-22T21:24:38.494Z,81.70
2024-03-22T21:27:12.145Z,81.96
2024-03-22T21:29:45.569Z,82.06
2024-03-22T21:32:17.126Z,82.20
2024-03-22T21:34:48.315Z,82.28
2024-03-22T21:37:19.827Z,82.22
2024-03-22T21:39:53.782Z,82.38
2024-03-22T21:42:25.637Z,82.29
2024-03-22T21:44:56.809Z,82.56
2024-03-22T21:47:28.169Z,82.82
2024-03-22T21:49:59.348Z,82.57
2024-03-22T21:52:30.683Z,82.95
2024-03-22T21:55:01.964Z,83.13
2024-03-22T21:57:33.338Z,83.13
2024-03-22T22:00:06.138Z,83.19
2024-03-22T22:02:37.694Z,83.37
2024-03-22T22:05:09.041Z,83.17
2024-03-22T22:07:40.589Z,83.72
2024-03-22T22:10:11.924Z,83.45
2024-03-22T22:12:44.156Z,83.65
2024-03-22T22:15:15.493Z,84.05
2024-03-22T22:17:46.855Z,84.11
2024-03-22T22:20:19.512Z,84.03
2024-03-22T22:22:51.058Z,83.88
2024-03-22T22:25:22.338Z,83.95
2024-03-22T22:27:53.684Z,84.32
2024-03-22T22:30:25.275Z,84.29
2024-03-22T22:32:56.684Z,84.46
2024-03-22T22:35:27.924Z,84.22
2024-03-22T22:37:59.422Z,84.25
2024-03-22T22:40:30.771Z,84.64
2024-03-22T22:43:02.282Z,84.47
2024-03-22T22:45:33.520Z,84.44
2024-03-22T22:48:04.816Z,84.52
2024-03-22T22:50:36.040Z,84.69
2024-03-22T22:53:08.115Z,84.65
2024-03-22T22:55:40.023Z,84.89
2024-03-22T22:58:11.839Z,85.11
2024-03-22T23:00:43.126Z,84.89
2024-03-22T23:03:14.643Z,85.15
2024-03-22T23:05:45.944Z,84.91
2024-03-22T23:08:17.357Z,84.96
2024-03-22T23:10:48.769Z,85.13
2024-03-22T23:13:20.184Z,85.27
2024-03-22T23:15:51.463Z,84.85
2024-03-22T23:18:23.018Z,85.09
2024-03-22T23:20:54.256Z,85.14
2024-03-22T23:23:25.506Z,84.77
2024-03-22T23:25:56.711Z,84.72
2024-03-22T23:28:28.045Z,85.16
2024-03-22T23:30:59.651Z,84.99
2024-03-22T23:33:31.487Z,85.23
2024-03-22T23:36:02.619Z,85.67
2024-03-22T23:38:34.027Z,85.47
2024-03-22T23:41:05.186Z,85.38
2024-03-22T23:43:36.630Z,85.76
2024-03-22T23:46:08.043Z,85.79
2024-03-22T23:48:41.638Z,85.98
2024-03-22T23:51:12.774Z,86.15
2024-03-22T23:53:44.237Z,86.19
2024-03-22T23:56:15.358Z,86.61
2024-03-22T23:58:46.720Z,86.63
